Patrocinio Paulista, Brazil
Current Conditions -  °F | °C
As of 5:00 PM on Thursday 18 Dec 2014 (Local Time) from SBRP Reporting Station
Few Clouds Few Clouds  
Wind Chill: 86°   Ceiling: Unl
Heat Index: 87°   Visibility: 6mi
Dew Point: 64°   Wind: 9mph
Humidity: 48%   Direction: 90°E
Pressure: 29.8"   Gusts: NA
Location:  20.64°S, 47.28°W
Report Text: SBRP 181900Z 09008KT 9999 FEW035 FEW040TCU 30/18 Q1009
Loading
Personal Weather Stations






























Interactive Weather Map New forecast layout! Learn more

10-Day Weather Forecast

Advertisements
Track Severe Weather on mobile